createdAt,value
2017-11-10T00:00:20.401Z,6.60
2017-11-10T00:02:47.963Z,6.60
2017-11-10T00:05:15.529Z,6.60
2017-11-10T00:07:43.101Z,6.50
2017-11-10T00:10:10.671Z,6.50
2017-11-10T00:12:39.025Z,6.50
2017-11-10T00:15:06.601Z,6.50
2017-11-10T00:17:35.015Z,6.50
2017-11-10T00:20:02.576Z,6.40
2017-11-10T00:22:30.149Z,6.50
2017-11-10T00:24:57.709Z,6.50
2017-11-10T00:27:25.252Z,6.50
2017-11-10T00:29:52.817Z,6.50
2017-11-10T00:32:20.359Z,6.50
2017-11-10T00:34:47.916Z,6.50
2017-11-10T00:37:15.487Z,6.50
2017-11-10T00:39:43.037Z,6.50
2017-11-10T00:42:10.604Z,6.50
2017-11-10T00:44:38.216Z,6.50
2017-11-10T00:47:06.554Z,6.50
2017-11-10T00:49:34.127Z,6.50
2017-11-10T00:52:01.665Z,6.50
2017-11-10T00:54:29.224Z,6.50
2017-11-10T00:56:56.779Z,6.60
2017-11-10T00:59:24.335Z,6.60
2017-11-10T01:01:51.921Z,6.60
2017-11-10T01:04:19.459Z,6.60
2017-11-10T01:06:47.054Z,6.60
2017-11-10T01:09:14.614Z,6.60
2017-11-10T01:11:42.177Z,6.70
2017-11-10T01:14:09.748Z,6.70
2017-11-10T01:16:37.303Z,6.70
2017-11-10T01:19:04.902Z,6.70
2017-11-10T01:21:32.473Z,6.70
2017-11-10T01:24:00.046Z,6.70
2017-11-10T01:26:27.623Z,6.70
2017-11-10T01:28:55.169Z,6.70
2017-11-10T01:31:22.747Z,6.80
2017-11-10T01:33:50.299Z,6.80
2017-11-10T01:36:17.852Z,6.80
2017-11-10T01:38:45.410Z,6.90
2017-11-10T01:41:12.964Z,6.90
2017-11-10T01:43:40.543Z,6.90
2017-11-10T01:46:08.095Z,7.00
2017-11-10T01:48:41.501Z,7.00
2017-11-10T01:51:09.041Z,7.00
2017-11-10T01:53:36.606Z,7.00
2017-11-10T01:56:04.183Z,7.00
2017-11-10T01:58:31.784Z,7.10
2017-11-10T02:00:59.368Z,7.10
2017-11-10T02:03:26.928Z,7.10
2017-11-10T02:05:54.496Z,7.10
2017-11-10T02:08:22.069Z,7.10
2017-11-10T02:10:49.637Z,7.00
2017-11-10T02:13:17.219Z,7.10
2017-11-10T02:15:44.783Z,7.10
2017-11-10T02:18:13.385Z,7.10
2017-11-10T02:20:40.946Z,7.10
2017-11-10T02:23:09.267Z,7.20
2017-11-10T02:25:36.834Z,7.10
2017-11-10T02:28:04.401Z,7.10
2017-11-10T02:30:31.965Z,7.10
2017-11-10T02:32:59.523Z,7.10
2017-11-10T02:35:28.579Z,7.10
2017-11-10T02:37:56.133Z,7.10
2017-11-10T02:40:23.687Z,7.20
2017-11-10T02:42:51.274Z,7.20
2017-11-10T02:45:18.813Z,7.20
2017-11-10T02:47:46.368Z,7.20
2017-11-10T02:50:13.920Z,7.20
2017-11-10T02:52:41.512Z,7.20
2017-11-10T02:55:09.079Z,7.30
2017-11-10T02:57:36.640Z,7.20
2017-11-10T03:00:04.226Z,7.30
2017-11-10T03:02:32.562Z,7.30
2017-11-10T03:05:00.138Z,7.30
2017-11-10T03:07:27.692Z,7.30
2017-11-10T03:09:55.293Z,7.30
2017-11-10T03:12:22.870Z,7.30
2017-11-10T03:14:50.459Z,7.30
2017-11-10T03:17:18.042Z,7.40
2017-11-10T03:19:45.607Z,7.40
2017-11-10T03:22:13.174Z,7.40
2017-11-10T03:24:42.228Z,7.30
2017-11-10T03:27:09.802Z,7.30
2017-11-10T03:29:37.391Z,7.40
2017-11-10T03:32:04.948Z,7.30
2017-11-10T03:34:32.508Z,7.30
2017-11-10T03:37:00.080Z,7.30
2017-11-10T03:39:28.413Z,7.40
2017-11-10T03:41:55.984Z,7.30
2017-11-10T03:44:23.554Z,7.40
2017-11-10T03:46:51.145Z,7.30
2017-11-10T03:49:19.474Z,7.30
2017-11-10T03:51:47.013Z,7.30
2017-11-10T03:54:14.573Z,7.30
2017-11-10T03:56:42.143Z,7.30
2017-11-10T03:59:09.676Z,7.30
2017-11-10T04:01:37.254Z,7.40
2017-11-10T04:04:04.825Z,7.40
2017-11-10T04:06:32.403Z,7.40
2017-11-10T04:08:59.941Z,7.20
2017-11-10T04:11:27.491Z,7.10
2017-11-10T04:13:55.080Z,7.00
2017-11-10T04:16:22.622Z,7.00
2017-11-10T04:18:50.186Z,6.90
2017-11-10T04:21:17.820Z,6.90
2017-11-10T04:23:45.392Z,6.90
2017-11-10T04:26:12.966Z,6.90
2017-11-10T04:28:40.540Z,7.00
2017-11-10T04:31:08.101Z,7.00
2017-11-10T04:33:35.686Z,7.10
2017-11-10T04:36:04.000Z,7.10
2017-11-10T04:38:31.590Z,7.10
2017-11-10T04:40:59.127Z,7.20
2017-11-10T04:43:26.708Z,7.20
2017-11-10T04:45:54.263Z,7.20
2017-11-10T04:48:21.798Z,7.20
2017-11-10T04:50:49.368Z,7.30
2017-11-10T04:53:16.933Z,7.30
2017-11-10T04:55:44.502Z,7.30
2017-11-10T04:58:12.055Z,7.40
2017-11-10T05:00:39.619Z,7.50
2017-11-10T05:03:07.170Z,7.50
2017-11-10T05:05:34.762Z,7.50
2017-11-10T05:08:03.075Z,7.50
2017-11-10T05:10:30.639Z,7.50
2017-11-10T05:12:58.215Z,7.60
2017-11-10T05:15:25.782Z,7.60
2017-11-10T05:17:53.373Z,7.60
2017-11-10T05:20:21.696Z,7.60
2017-11-10T05:22:49.242Z,7.60
2017-11-10T05:25:16.824Z,7.60
2017-11-10T05:27:44.382Z,7.60
2017-11-10T05:30:11.982Z,7.60
2017-11-10T05:32:39.540Z,7.60
2017-11-10T05:35:07.095Z,7.60
2017-11-10T05:37:34.649Z,7.60
2017-11-10T05:40:02.964Z,7.60
2017-11-10T05:42:30.533Z,7.70
2017-11-10T05:44:58.069Z,7.60
2017-11-10T05:47:26.373Z,7.70
2017-11-10T05:49:53.944Z,7.60
2017-11-10T05:52:21.499Z,7.60
2017-11-10T05:54:49.098Z,7.60
2017-11-10T05:57:16.641Z,7.60
2017-11-10T05:59:44.176Z,7.60
2017-11-10T06:02:11.748Z,7.70
2017-11-10T06:04:39.304Z,7.70
2017-11-10T06:07:06.888Z,7.70
2017-11-10T06:09:34.475Z,7.70
2017-11-10T06:12:02.781Z,7.70
2017-11-10T06:14:30.370Z,7.70
2017-11-10T06:16:57.914Z,7.70
2017-11-10T06:19:25.471Z,7.70
2017-11-10T06:21:53.023Z,7.80
2017-11-10T06:24:20.599Z,7.70
2017-11-10T06:26:48.165Z,7.70
2017-11-10T06:29:15.728Z,7.80
2017-11-10T06:31:43.322Z,7.80
2017-11-10T06:34:11.648Z,7.80
2017-11-10T06:36:39.225Z,7.80
2017-11-10T06:39:06.775Z,7.80
2017-11-10T06:41:34.332Z,7.80
2017-11-10T06:44:01.917Z,7.80
2017-11-10T06:46:30.239Z,7.80
2017-11-10T06:48:57.813Z,7.80
2017-11-10T06:51:25.373Z,7.80
2017-11-10T06:53:52.949Z,7.80
2017-11-10T06:56:20.513Z,7.90
2017-11-10T06:58:48.175Z,7.80
2017-11-10T07:01:15.774Z,7.80
2017-11-10T07:03:44.095Z,7.90
2017-11-10T07:06:11.675Z,7.90
2017-11-10T07:08:39.257Z,7.90
2017-11-10T07:11:06.807Z,7.90
2017-11-10T07:13:34.384Z,7.90
2017-11-10T07:16:01.940Z,7.90
2017-11-10T07:18:30.241Z,8.00
2017-11-10T07:20:58.598Z,8.00
2017-11-10T07:23:26.156Z,8.00
2017-11-10T07:25:53.744Z,8.00
2017-11-10T07:28:21.304Z,8.10
2017-11-10T07:30:48.849Z,8.10
2017-11-10T07:33:17.206Z,8.10
2017-11-10T07:35:44.798Z,8.10
2017-11-10T07:38:12.393Z,8.10
2017-11-10T07:40:39.950Z,8.10
2017-11-10T07:43:07.504Z,8.10
2017-11-10T07:45:35.082Z,8.20
2017-11-10T07:48:02.644Z,8.10
2017-11-10T07:50:30.295Z,8.20
2017-11-10T07:52:57.852Z,8.10
2017-11-10T07:55:25.450Z,8.10
2017-11-10T07:57:52.994Z,8.10
2017-11-10T08:00:20.554Z,8.20
2017-11-10T08:02:48.118Z,8.20
2017-11-10T08:05:15.704Z,8.30
2017-11-10T08:07:43.720Z,8.30
2017-11-10T08:10:11.368Z,8.30
2017-11-10T08:12:38.966Z,8.40
2017-11-10T08:15:06.516Z,8.40
2017-11-10T08:17:34.099Z,8.20
2017-11-10T08:20:02.426Z,8.10
2017-11-10T08:22:29.994Z,8.10
2017-11-10T08:24:57.561Z,8.20
2017-11-10T08:27:25.124Z,8.20
2017-11-10T08:29:52.695Z,8.10
2017-11-10T08:32:20.244Z,8.20
2017-11-10T08:34:47.795Z,8.10
2017-11-10T08:37:15.367Z,8.20
2017-11-10T08:39:42.915Z,8.20
2017-11-10T08:42:10.514Z,8.20
2017-11-10T08:44:38.954Z,8.40
2017-11-10T08:47:06.484Z,8.30
2017-11-10T08:49:34.054Z,8.40
2017-11-10T08:52:01.627Z,8.40
2017-11-10T08:54:29.197Z,8.30
2017-11-10T08:56:56.737Z,8.40
2017-11-10T08:59:24.309Z,8.40
2017-11-10T09:01:51.899Z,8.40
2017-11-10T09:04:19.456Z,8.40
2017-11-10T09:06:47.021Z,8.40
2017-11-10T09:09:14.596Z,8.50
2017-11-10T09:11:42.925Z,8.50
2017-11-10T09:14:10.497Z,8.60
2017-11-10T09:16:38.056Z,8.60
2017-11-10T09:19:05.637Z,8.70
2017-11-10T09:21:34.011Z,8.70
2017-11-10T09:24:01.600Z,8.70
2017-11-10T09:26:29.233Z,8.70
2017-11-10T09:29:10.445Z,8.70
2017-11-10T09:31:50.457Z,8.70
2017-11-10T09:34:23.644Z,8.70
2017-11-10T09:36:54.908Z,8.70
2017-11-10T09:42:34.211Z,8.70
2017-11-10T09:45:07.532Z,8.70
2017-11-10T09:47:40.805Z,8.70
2017-11-10T09:53:20.043Z,8.70
2017-11-10T09:55:48.087Z,8.70
2017-11-10T09:58:17.337Z,8.90
2017-11-10T10:00:50.698Z,8.90
2017-11-10T10:06:30.592Z,8.90
2017-11-10T10:09:04.000Z,8.90
2017-11-10T10:14:39.862Z,8.80
2017-11-10T10:17:22.293Z,8.80
2017-11-10T10:19:54.530Z,8.80
2017-11-10T10:22:24.894Z,8.80
2017-11-10T10:24:52.482Z,8.80
2017-11-10T10:27:20.042Z,8.80
2017-11-10T10:29:48.379Z,8.90
2017-11-10T10:32:15.910Z,8.90
2017-11-10T10:34:43.449Z,8.90
2017-11-10T10:37:11.014Z,8.90
2017-11-10T10:39:38.572Z,8.90
2017-11-10T10:42:06.130Z,8.90
2017-11-10T10:44:33.670Z,8.90
2017-11-10T10:47:01.973Z,8.90
2017-11-10T10:49:29.550Z,8.90
2017-11-10T10:51:57.084Z,8.90
2017-11-10T10:54:24.663Z,8.90
2017-11-10T10:56:52.198Z,8.90
2017-11-10T10:59:19.859Z,8.90
2017-11-10T11:01:47.438Z,9.00
2017-11-10T11:04:14.992Z,9.00
2017-11-10T11:06:42.586Z,9.10
2017-11-10T11:09:10.138Z,9.00
2017-11-10T11:11:37.699Z,9.00
2017-11-10T11:14:05.290Z,9.00
2017-11-10T11:16:33.594Z,9.10
2017-11-10T11:19:01.182Z,9.00
2017-11-10T11:21:28.740Z,9.10
2017-11-10T11:23:56.324Z,9.10
2017-11-10T11:26:23.880Z,9.20
2017-11-10T11:28:51.413Z,9.20
2017-11-10T11:31:18.984Z,9.30
2017-11-10T11:33:46.537Z,9.30
2017-11-10T11:36:14.119Z,9.40
2017-11-10T11:38:41.686Z,9.50
2017-11-10T11:41:09.232Z,9.50
2017-11-10T11:43:36.814Z,9.70
2017-11-10T11:46:04.363Z,9.70
2017-11-10T11:48:31.974Z,10.20
2017-11-10T11:50:59.546Z,10.50
2017-11-10T11:53:27.117Z,10.50
2017-11-10T11:55:54.912Z,10.60
2017-11-10T11:58:22.449Z,10.40
2017-11-10T12:00:50.028Z,10.20
2017-11-10T12:03:17.583Z,10.20
2017-11-10T12:05:45.121Z,10.10
2017-11-10T12:08:12.693Z,10.00
2017-11-10T12:10:40.266Z,9.90
2017-11-10T12:13:07.943Z,9.80
2017-11-10T12:15:35.495Z,9.70
2017-11-10T12:18:03.062Z,9.70
2017-11-10T12:20:30.621Z,9.70
2017-11-10T12:22:58.201Z,9.60
2017-11-10T12:25:26.547Z,9.30
2017-11-10T12:27:54.099Z,9.30
2017-11-10T12:30:21.688Z,9.10
2017-11-10T12:32:50.038Z,9.10
2017-11-10T12:35:17.672Z,9.10
2017-11-10T12:37:45.259Z,9.00
2017-11-10T12:40:12.812Z,9.00
2017-11-10T12:42:40.366Z,8.90
2017-11-10T12:45:07.940Z,8.90
2017-11-10T12:47:35.515Z,8.90
2017-11-10T12:50:03.871Z,8.90
2017-11-10T12:52:32.210Z,8.80
2017-11-10T12:54:59.749Z,8.80
2017-11-10T12:57:28.073Z,8.90
2017-11-10T12:59:55.623Z,8.90
2017-11-10T13:02:23.181Z,8.90
2017-11-10T13:04:50.744Z,9.00
2017-11-10T13:07:18.298Z,9.00
2017-11-10T13:09:45.886Z,9.00
2017-11-10T13:12:14.012Z,8.90
2017-11-10T13:14:41.573Z,8.80
2017-11-10T13:17:09.816Z,8.70
2017-11-10T13:19:38.142Z,8.70
2017-11-10T13:22:06.532Z,8.70
2017-11-10T13:24:35.259Z,8.60
2017-11-10T13:27:04.682Z,8.50
2017-11-10T13:29:32.575Z,8.50
2017-11-10T13:32:00.954Z,8.50
2017-11-10T13:34:29.058Z,8.50
2017-11-10T13:36:57.197Z,8.50
2017-11-10T13:39:24.840Z,8.60
2017-11-10T13:41:52.413Z,8.60
2017-11-10T13:44:20.593Z,8.60
2017-11-10T13:46:48.206Z,8.60
2017-11-10T13:49:16.560Z,8.70
2017-11-10T13:51:44.202Z,8.70
2017-11-10T13:54:11.785Z,8.80
2017-11-10T13:56:39.421Z,8.80
2017-11-10T13:59:06.993Z,8.80
2017-11-10T14:01:34.617Z,8.90
2017-11-10T14:04:02.211Z,9.00
2017-11-10T14:06:29.809Z,9.10
2017-11-10T14:08:57.427Z,9.30
2017-11-10T14:11:24.987Z,9.30
2017-11-10T14:13:52.572Z,9.30
2017-11-10T14:16:20.900Z,9.30
2017-11-10T14:18:48.461Z,9.30
2017-11-10T14:21:16.027Z,9.40
2017-11-10T14:23:43.561Z,9.30
2017-11-10T14:26:11.154Z,9.30
2017-11-10T14:28:38.690Z,9.30
2017-11-10T14:31:06.236Z,9.30
2017-11-10T14:33:33.804Z,9.20
2017-11-10T14:36:01.374Z,9.10
2017-11-10T14:38:28.959Z,8.80
2017-11-10T14:40:56.602Z,8.70
2017-11-10T14:43:24.178Z,8.60
2017-11-10T14:45:51.733Z,8.50
2017-11-10T14:48:19.306Z,8.40
2017-11-10T14:50:46.902Z,8.40
2017-11-10T14:53:15.228Z,8.40
2017-11-10T14:55:42.883Z,8.30
2017-11-10T14:58:10.453Z,8.30
2017-11-10T15:00:38.021Z,8.30
2017-11-10T15:03:05.596Z,8.30
2017-11-10T15:05:33.151Z,8.30
2017-11-10T15:08:01.505Z,8.20
2017-11-10T15:10:29.847Z,8.10
2017-11-10T15:12:57.385Z,8.10
2017-11-10T15:15:25.715Z,8.10
2017-11-10T15:17:53.273Z,8.10
2017-11-10T15:20:20.854Z,8.10
2017-11-10T15:22:49.901Z,8.00
2017-11-10T15:25:17.472Z,8.00
2017-11-10T15:27:45.025Z,8.00
2017-11-10T15:30:12.603Z,8.00
2017-11-10T15:32:40.167Z,8.00
2017-11-10T15:35:07.822Z,8.00
2017-11-10T15:37:35.420Z,8.00
2017-11-10T15:40:03.759Z,8.00
2017-11-10T15:42:31.338Z,8.00
2017-11-10T15:44:58.889Z,8.00
2017-11-10T15:47:26.456Z,8.00
2017-11-10T15:49:54.027Z,8.00
2017-11-10T15:52:21.584Z,8.00
2017-11-10T15:54:49.159Z,8.00
2017-11-10T15:57:16.707Z,8.00
2017-11-10T15:59:44.245Z,8.00
2017-11-10T16:02:11.821Z,8.00
2017-11-10T16:04:39.380Z,8.00
2017-11-10T16:07:06.969Z,8.00
2017-11-10T16:09:35.310Z,8.30
2017-11-10T16:12:02.948Z,7.90
2017-11-10T16:14:30.516Z,7.90
2017-11-10T16:16:58.103Z,7.80
2017-11-10T16:19:25.672Z,7.80
2017-11-10T16:21:53.992Z,7.80
2017-11-10T16:24:21.590Z,7.80
2017-11-10T16:26:49.137Z,7.80
2017-11-10T16:29:16.706Z,7.70
2017-11-10T16:31:44.275Z,7.70
2017-11-10T16:34:11.831Z,7.80
2017-11-10T16:36:39.411Z,7.70
2017-11-10T16:39:07.845Z,7.70
2017-11-10T16:41:35.394Z,7.70
2017-11-10T16:44:02.980Z,7.60
2017-11-10T16:46:30.544Z,7.50
2017-11-10T16:48:58.271Z,7.40
2017-11-10T16:51:25.816Z,7.30
2017-11-10T16:53:53.368Z,7.30
2017-11-10T16:56:20.940Z,7.20
2017-11-10T16:58:48.508Z,7.20
2017-11-10T17:01:16.073Z,7.10
2017-11-10T17:03:43.642Z,7.00
2017-11-10T17:06:11.205Z,7.00
2017-11-10T17:08:38.771Z,7.00
2017-11-10T17:11:06.336Z,7.00
2017-11-10T17:13:34.709Z,7.00
2017-11-10T17:16:02.269Z,7.00
2017-11-10T17:18:29.821Z,7.10
2017-11-10T17:20:57.373Z,7.00
2017-11-10T17:23:24.926Z,7.00
2017-11-10T17:25:52.511Z,7.00
2017-11-10T17:28:20.046Z,7.00
2017-11-10T17:30:47.606Z,7.00
2017-11-10T17:33:15.189Z,7.00
2017-11-10T17:35:42.827Z,7.00
2017-11-10T17:38:10.403Z,7.00
2017-11-10T17:40:37.978Z,6.90
2017-11-10T17:43:07.247Z,6.70
2017-11-10T17:45:34.820Z,6.70
2017-11-10T17:48:02.381Z,6.60
2017-11-10T17:50:29.949Z,6.50
2017-11-10T17:52:57.583Z,6.40
2017-11-10T17:55:25.113Z,6.30
2017-11-10T17:57:52.675Z,6.20
2017-11-10T18:00:20.244Z,6.10
2017-11-10T18:02:47.932Z,6.20
2017-11-10T18:05:15.594Z,6.10
2017-11-10T18:07:43.145Z,6.00
2017-11-10T18:10:10.732Z,6.10
2017-11-10T18:12:38.289Z,6.10
2017-11-10T18:15:05.844Z,6.00
2017-11-10T18:17:33.420Z,6.00
2017-11-10T18:20:01.305Z,5.90
2017-11-10T18:22:29.629Z,5.80
2017-11-10T18:24:57.189Z,5.80
2017-11-10T18:27:24.731Z,5.90
2017-11-10T18:29:52.290Z,5.90
2017-11-10T18:32:19.878Z,5.80
2017-11-10T18:34:47.436Z,5.70
2017-11-10T18:37:14.977Z,5.60
2017-11-10T18:39:42.539Z,5.50
2017-11-10T18:42:10.098Z,5.40
2017-11-10T18:44:37.676Z,5.40
2017-11-10T18:47:05.224Z,5.40
2017-11-10T18:49:32.894Z,5.40
2017-11-10T18:52:00.470Z,5.30
2017-11-10T18:54:28.019Z,5.50
2017-11-10T18:56:55.591Z,5.60
2017-11-10T18:59:23.226Z,5.50
2017-11-10T19:01:50.866Z,5.60
2017-11-10T19:04:18.458Z,5.60
2017-11-10T19:06:45.993Z,5.70
2017-11-10T19:09:13.576Z,5.70
2017-11-10T19:11:41.166Z,5.70
2017-11-10T19:14:09.507Z,5.70
2017-11-10T19:16:37.088Z,5.70
2017-11-10T19:19:04.644Z,5.70
2017-11-10T19:21:32.179Z,5.70
2017-11-10T19:23:59.763Z,5.80
2017-11-10T19:26:27.349Z,5.80
2017-11-10T19:28:55.664Z,5.70
2017-11-10T19:31:23.211Z,5.70
2017-11-10T19:33:50.771Z,5.60
2017-11-10T19:36:18.332Z,5.70
2017-11-10T19:38:45.924Z,5.60
2017-11-10T19:41:13.479Z,5.70
2017-11-10T19:43:41.036Z,5.80
2017-11-10T19:46:08.599Z,5.70
2017-11-10T19:48:36.186Z,5.70
2017-11-10T19:51:03.747Z,5.70
2017-11-10T19:53:31.306Z,5.70
2017-11-10T19:55:58.898Z,5.70
2017-11-10T19:58:26.467Z,5.60
2017-11-10T20:00:54.042Z,5.60
2017-11-10T20:03:21.606Z,5.50
2017-11-10T20:05:49.176Z,5.50
2017-11-10T20:08:16.746Z,5.60
2017-11-10T20:10:44.337Z,5.60
2017-11-10T20:13:12.647Z,5.50
2017-11-10T20:15:40.227Z,5.50
2017-11-10T20:18:07.813Z,5.50
2017-11-10T20:20:35.382Z,5.50
2017-11-10T20:23:02.922Z,5.40
2017-11-10T20:25:30.481Z,5.40
2017-11-10T20:27:58.021Z,5.40
2017-11-10T20:30:25.607Z,5.50
2017-11-10T20:32:53.180Z,5.50
2017-11-10T20:35:21.478Z,5.40
2017-11-10T20:37:49.833Z,5.40
2017-11-10T20:40:17.472Z,5.30
2017-11-10T20:42:45.028Z,5.30
2017-11-10T20:45:12.606Z,5.40
2017-11-10T20:47:40.200Z,5.30
2017-11-10T20:50:07.798Z,5.30
2017-11-10T20:52:35.365Z,5.30
2017-11-10T20:55:02.930Z,5.30
2017-11-10T20:57:30.499Z,5.20
2017-11-10T20:59:58.053Z,5.30
2017-11-10T21:02:25.670Z,5.20
2017-11-10T21:04:53.351Z,5.20
2017-11-10T21:07:20.908Z,5.20
2017-11-10T21:09:48.485Z,5.30
2017-11-10T21:12:16.046Z,5.30
2017-11-10T21:14:43.687Z,5.30
2017-11-10T21:17:11.253Z,5.40
2017-11-10T21:19:38.832Z,5.40
2017-11-10T21:22:06.399Z,5.40
2017-11-10T21:24:33.949Z,5.30
2017-11-10T21:27:01.502Z,5.30
2017-11-10T21:29:29.096Z,5.30
2017-11-10T21:31:57.426Z,5.30
2017-11-10T21:34:24.976Z,5.30
2017-11-10T21:36:52.558Z,5.40
2017-11-10T21:39:20.123Z,5.40
2017-11-10T21:41:47.664Z,5.50
2017-11-10T21:44:15.227Z,5.50
2017-11-10T21:46:42.777Z,5.40
2017-11-10T21:49:10.328Z,5.30
2017-11-10T21:51:37.923Z,5.20
2017-11-10T21:54:05.472Z,5.20
2017-11-10T21:56:33.019Z,5.30
2017-11-10T21:59:00.577Z,5.30
2017-11-10T22:01:28.141Z,5.30
2017-11-10T22:03:55.688Z,5.30
2017-11-10T22:06:23.256Z,5.20
2017-11-10T22:08:50.798Z,5.20
2017-11-10T22:11:18.394Z,5.20
2017-11-10T22:13:47.456Z,5.30
2017-11-10T22:16:14.986Z,5.30
2017-11-10T22:18:43.324Z,5.20
2017-11-10T22:21:10.853Z,5.20
2017-11-10T22:23:38.412Z,5.10
2017-11-10T22:26:06.015Z,5.10
2017-11-10T22:28:33.591Z,5.10
2017-11-10T22:31:01.908Z,5.10
2017-11-10T22:33:29.487Z,5.10
2017-11-10T22:35:57.021Z,5.00
2017-11-10T22:38:24.592Z,4.90
2017-11-10T22:40:52.149Z,4.80
2017-11-10T22:43:19.713Z,4.70
2017-11-10T22:45:47.292Z,4.70
2017-11-10T22:48:14.835Z,4.70
2017-11-10T22:50:42.402Z,4.60
2017-11-10T22:53:09.958Z,4.60
2017-11-10T22:55:37.518Z,4.60
2017-11-10T22:58:05.085Z,4.50
2017-11-10T23:00:32.631Z,4.50
2017-11-10T23:03:00.189Z,4.40
2017-11-10T23:05:27.751Z,4.50
2017-11-10T23:07:55.285Z,4.50
2017-11-10T23:10:22.863Z,4.50
2017-11-10T23:12:50.394Z,4.60
2017-11-10T23:15:17.936Z,4.70
2017-11-10T23:17:46.289Z,5.00
2017-11-10T23:20:13.840Z,4.90
2017-11-10T23:22:41.411Z,5.00
2017-11-10T23:25:08.959Z,5.10
2017-11-10T23:27:36.526Z,5.10
2017-11-10T23:30:04.068Z,5.10
2017-11-10T23:32:31.602Z,5.10
2017-11-10T23:34:59.163Z,5.10
2017-11-10T23:37:26.715Z,5.20
2017-11-10T23:39:54.274Z,5.20
2017-11-10T23:42:21.824Z,5.20
2017-11-10T23:44:49.378Z,5.10
2017-11-10T23:47:16.923Z,5.20
2017-11-10T23:49:45.274Z,5.30
2017-11-10T23:52:12.840Z,5.30
2017-11-10T23:54:40.388Z,5.30
2017-11-10T23:57:07.955Z,5.40
2017-11-10T23:59:36.280Z,5.50
